Mc Comb/Pike County/John E Lewis Field
KMCB : now visible

Airfield :











YOU CAN JOIN US ON...

 
LOGIN :

Register | Disclaimer

   EN    FR    IT 

 









Legend :    VFR   Marginal VFR   IFR   Intensive IFR   Very Intensive IFR
Visi :
Ceiling :
>= 8 km
>= 3000ft
5 to 8 km
1000 to 3000 ft
1500m to 5 km
500 to 1000 ft
800 to 1500m
200 to 500 ft
< 800m
< 200 ft
Symbols :   Thunderstorms  Fog  Heavy snow  Heavy precipitations  Wind > 20 kt






- Airport Elevation : 413 ft


KMCB - Mc Comb/Pike County/John E Lewis Field

CURRENT METAR :
  • 190153Z AUTO 34003KT 10SM CLR 08/05 A2992 RMK AO2 SLP129 T00830050

EXPIRED METARs :
  • 190053Z AUTO 00000KT 10SM CLR 11/06 A2990 RMK AO2 SLP125 T01110061
  • 182353Z AUTO 00000KT 10SM CLR 13/07 A2988 RMK AO2 SLP117 T01280067 10194 20128 53006

TAF KMCB
Valid from the 19 at 00:00 until the 20 at 00:00 UTC


182320Z 1900/1924 29003KT P6SM SKC
FM191600 27005KT P6SM SKC
FM192200 00000KT P6SM SKC



MET'MAP, your aeronautical weather chart ! - Copyright ORBIFLY December 2007 - Disclaimer

ORBIFLY MET'MAP TEAM :

Programming & Development : Alexandra Zaïnal
Concept & Development : Baudouin d'Aumeries
Co-Development & Prog : Marc-Olivier Méhu
Technical & hardware support : Manuel Goepfert

Contact : metmap@orbifly.com




SOURCES & CREDITS :

   NOAA       Earth
Advisory